Stewartsville, New Jersey
Current Conditions -  °F | °C
As of 5:51 PM on Friday 31 Oct 2014 (Local Time) from KABE Reporting Station
Overcast Overcast  
Wind Chill: 50°   Ceiling: 6000
Heat Index: 50°   Visibility: 10mi
Dew Point: 35°   Wind: 8mph
Humidity: 57%   Direction: 100°E
Pressure: 29.9"   Gusts: NA
Location:  40.7°N, 75.11°W
Report Text: KABE 312151Z 10007KT 10SM OVC060 10/02 A2990 RMK AO2 SLP126 T01000017
Loading
Personal Weather Stations






























Interactive Weather Map
Tropical Storm Tracking
New forecast layout! Learn more

10-Day Weather Forecast

Advertisements
Track Severe Weather on mobile